Aeroporto :
LOGIN :

Iscrizione | Disclaimer

   EN    FR    IT 

 










Sommario :    VFR   VFR Marginale   IFR   IFR Intensivo   IFR Molto Intensivo
Visibilità : 
Base nubi : 
>= 8 km
>= 3000ft
5 / 8 km
1000 / 3000 ft
1500m / 5 km
500 / 1000 ft
800 / 1500m
200 / 500 ft
< 800m
< 200 ft
Simboli :   Temporali  Nebbia  Neve Forte  Precipitazioni Forti  Vento > 20 kt
SIGMETs :   Varie  Temporali  Ghiacco  Turbolenza  Onda orograficha  Ceneri Vulcaniche






- Altitudine del aeroporto : 328 ft
- Codice IATA : PGX


LFBX - Périgueux Bassillac

ULTIMO METAR :
  • 231930Z AUTO 24005KT 210V270 9999 OVC013/// //////CB 05/04 Q1001

METARs OBSOLETI :
  • 231900Z AUTO 25005KT 190V280 9000 RA BKN015/// BKN022/// OVC027/// //////CB 05/04 Q1001
  • 231830Z AUTO 20008KT 160V250 9999 -RA SCT023/// BKN039/// BKN049/// //////CB 05/04 Q1000
  • 231800Z AUTO 17006KT 110V210 9999 -RA FEW026/// BKN033/// BKN044/// //////TCU 05/03 Q1000
  • 231730Z AUTO 19007KT 140V230 9999 FEW016/// SCT039/// BKN052/// //////CB 05/03 Q1000
  • 231700Z AUTO 21011KT 180V250 9999 FEW019/// BKN042/// BKN064/// //////CB 05/03 Q1000
  • 231630Z AUTO 20011KT 150V230 9999 -RA BKN018/// BKN024/// BKN036/// //////CB 07/05 Q1000
  • 231600Z AUTO 20009KT 170V240 9999 BKN016/// BKN028/// BKN035/// //////CB 07/05 Q1000
  • 231530Z AUTO 18008KT 100V210 9999 SCT017/// BKN022/// BKN031/// //////CB 07/05 Q1000
  • 231500Z AUTO 18005KT 120V280 9999 FEW015/// BKN064/// BKN230/// ///CB 08/05 Q1000

TAF N/A



MetMap, La meteo Aeronautica in un colpo d'occhio ! - Copyright ORBIFLY Dicembre 2007 - Disclaimer

ORBIFLY MET'MAP TEAM :

Programmazione e sviluppo : Alexandra Zaïnal
Concezione : Baudouin d'Aumeries
Supporto tecnico e logistico : Manuel Goepfert
Aiuto : Marc-Olivier Méhu
Aiuto per la traduzione : Arnaldo La Scala




FONTI E CREDITI :

   NOAA